Nearby METAR Reports



KADS - Dallas/Addison, Texas, USA
Distance from station: SSW 10mi, 16km
Updated: Thu, 18-Oct-2018 5:47am CDT
Overcast
Overcast
 Wind from NNE
Wind: NNE 6 mph , 9 km/h
Temperature: 55°F , 13°C
Dew Point: 50°F , 10°C
Humidity: 82%
Barometer: 30.38 inHg , 1028.8 hPa
Clouds: Overcast
Visibility: 10 miles , 16 km
Cloud details: Overcast 5000 ft
2018/10/18 10:47 KADS 181047Z 03005KT 10SM OVC050 13/10 A3038
KTKI - Mckinney, Texas, USA
Distance from station: ENE 11mi, 18km
Updated: Thu, 18-Oct-2018 5:53am CDT
Overcast
Overcast
 Wind from NE
Wind: NE 5 mph , 7 km/h
Temperature: 57°F , 14°C
Dew Point: 52°F , 11°C
Humidity: 82%
Barometer: 30.37 inHg , 1028.4 hPa
Clouds: Overcast
Visibility: 10 miles , 16 km
Cloud details: Overcast 5500 ft
2018/10/18 10:53 KTKI 181053Z 04004KT 10SM OVC055 14/11 A3037 RMK AO2 SLP291 T01390106
 
KDAL - Dallas/Love Fld, Texas, USA
Distance from station: SSW 18mi, 30km
Updated: Thu, 18-Oct-2018 5:53am CDT
Overcast
Overcast
 Wind from NE
Wind: NE 7 mph , 11 km/h
Temperature: 57°F , 14°C
Dew Point: 52°F , 11°C
Humidity: 82%
Barometer: 30.37 inHg , 1028.4 hPa
Clouds: Overcast
Visibility: 10 miles , 16 km
Cloud details: Mostly cloudy 5500 ft
Overcast 7500 ft
2018/10/18 10:53 KDAL 181053Z 04006KT 10SM BKN055 OVC075 14/11 A3037 RMK AO2 RAE34 SLP281 P0000 T01390111 $
KDFW - Dallas/Ft Worth, Texas, USA
Distance from station: SW 21mi, 34km
Updated: Thu, 18-Oct-2018 5:53am CDT
Overcast
Overcast
 Wind from N
Wind: N 8 mph , 13 km/h
Temperature: 55°F , 13°C
Dew Point: 52°F , 11°C
Humidity: 88%
Barometer: 30.35 inHg , 1027.8 hPa
Clouds: Overcast
Visibility: 10 miles , 16 km
Cloud details: Mostly cloudy 6000 ft
Overcast 7500 ft
2018/10/18 10:53 KDFW 181053Z 01007KT 10SM BKN060 OVC075 13/11 A3035 RMK AO2 SLP276 T01330106
 
KF46 - Rockwall, Texas, USA
Distance from station: ESE 22mi, 35km
Updated: Thu, 18-Oct-2018 6:15am CDT
Overcast
Overcast
 Wind from N
Wind: N 5 mph , 7 km/h
Temperature: 57°F , 14°C
Dew Point: 54°F , 12°C
Humidity: 88%
Barometer: 30.37 inHg , 1028.4 hPa
Clouds: Overcast
Visibility: 10 miles , 16 km
Cloud details: Mostly cloudy 5000 ft
Overcast 7000 ft
2018/10/18 11:15 KF46 181115Z AUTO 01004KT 10SM BKN050 OVC070 14/12 A3037 RMK AO2 T01350115
KDTO - Denton, Texas, USA
Distance from station: WNW 27mi, 43km
Updated: Thu, 18-Oct-2018 5:53am CDT
Overcast
Overcast
 Wind from NNE
Wind: NNE 7 mph , 11 km/h
Temperature: 55°F , 13°C
Dew Point: 52°F , 11°C
Humidity: 88%
Barometer: 30.38 inHg , 1028.8 hPa
Clouds: Overcast
Visibility: 10 miles , 16 km
Cloud details: Overcast 5500 ft
2018/10/18 10:53 KDTO 181053Z 02006KT 10SM OVC055 13/11 A3038 RMK AO2 SLP284 T01280106
 
KHQZ - Mesquite, Texas, USA
Distance from station: SSE 28mi, 44km
Updated: Thu, 18-Oct-2018 6:15am CDT
Overcast
Overcast
 Wind from calm
Wind: Calm
Temperature: 57°F , 14°C
Dew Point: 52°F , 11°C
Humidity: 82%
Barometer: 30.37 inHg , 1028.4 hPa
Clouds: Overcast
Visibility: 10 miles , 16 km
Cloud details: Overcast 5000 ft
2018/10/18 11:15 KHQZ 181115Z AUTO 00000KT 10SM OVC050 14/11 A3037 RMK AO1 T01350106
KRBD - Dallas/Redbird, Texas, USA
Distance from station: SSW 30mi, 48km
Updated: Thu, 18-Oct-2018 5:53am CDT
Overcast
Overcast
 Wind from NNE
Wind: NNE 6 mph , 9 km/h
Temperature: 55°F , 13°C
Dew Point: 52°F , 11°C
Humidity: 88%
Barometer: 30.35 inHg , 1027.8 hPa
Clouds: Overcast
Visibility: 10 miles , 16 km
Cloud details: Overcast 4900 ft
2018/10/18 10:53 KRBD 181053Z AUTO 02005KT 10SM OVC049 13/11 A3035 RMK AO2 SLP278 T01280111
 
KGPM - Grand Prairie, Texas, USA
Distance from station: SSW 33mi, 53km
Updated: Thu, 18-Oct-2018 6:15am CDT
Overcast
Overcast
 Wind from N
Wind: N 7 mph , 11 km/h
Temperature: 55°F , 13°C
Dew Point: 50°F , 10°C
Humidity: 82%
Barometer: 30.38 inHg , 1028.8 hPa
Clouds: Overcast
Visibility: 10 miles , 16 km
Cloud details: Overcast 4800 ft
2018/10/18 11:15 KGPM 181115Z AUTO 01006KT 10SM OVC048 13/10 A3038 RMK AO2 T01330104
KAFW - Ft Worth/Allianc, Texas, USA
Distance from station: WSW 34mi, 55km
Updated: Thu, 18-Oct-2018 5:53am CDT
Light rain, Overcast
Light rain, Overcast
 Wind from NNE
Wind: NNE 6 mph , 9 km/h
Temperature: 55°F , 13°C
Dew Point: 52°F , 11°C
Humidity: 88%
Barometer: 30.37 inHg , 1028.4 hPa
Summary: Light rain
Clouds: Overcast
Visibility: 10 miles , 16 km
Cloud details: Overcast 5000 ft
2018/10/18 10:53 KAFW 181053Z 02005KT 10SM -RA OVC050 13/11 A3037 RMK AO2 RAB18 SLP286 P0000 T01280106
 
KLNC - Lancaster, Texas, USA
Distance from station: S 36mi, 58km
Updated: Thu, 18-Oct-2018 6:15am CDT
Overcast
Overcast
 Wind from N
Wind: N 5 mph , 7 km/h
Temperature: 55°F , 13°C
Dew Point: 52°F , 11°C
Humidity: 88%
Barometer: 30.36 inHg , 1028.1 hPa
Clouds: Overcast
Visibility: 10 miles , 16 km
Cloud details: Overcast 4900 ft
2018/10/18 11:15 KLNC 181115Z AUTO 01004KT 10SM OVC049 13/11 A3036 RMK AO2 T01330105
KGKY - Arlington, Texas, USA
Distance from station: SSW 36mi, 59km
Updated: Thu, 18-Oct-2018 5:53am CDT
Overcast
Overcast
 Wind from N
Wind: N 7 mph , 11 km/h
Temperature: 55°F , 13°C
Dew Point: 54°F , 12°C
Humidity: 94%
Barometer: 30.36 inHg , 1028.1 hPa
Clouds: Overcast
Visibility: 10 miles , 16 km
Cloud details: Overcast 4700 ft
2018/10/18 10:53 KGKY 181053Z AUTO 35006KT 10SM OVC047 13/12 A3036 RMK AO2 SLP278 T01330117
 
KTRL - Terrell, Texas, USA
Distance from station: SE 39mi, 63km
Updated: Thu, 18-Oct-2018 5:53am CDT
Overcast
Overcast
 Wind from NNE
Wind: NNE 8 mph , 13 km/h
Temperature: 57°F , 14°C
Dew Point: 52°F , 11°C
Humidity: 82%
Barometer: 30.36 inHg , 1028.1 hPa
Clouds: Overcast
Visibility: 10 miles , 16 km
Cloud details: Overcast 5500 ft
2018/10/18 10:53 KTRL 181053Z AUTO 02007KT 10SM OVC055 14/11 A3036 RMK AO2 SLP279 T01390106
KGVT - Greenville/Major, Texas, USA
Distance from station: E 40mi, 64km
Updated: Thu, 18-Oct-2018 6:15am CDT
Overcast
Overcast
 Wind from calm
Wind: Calm
Temperature: 59°F , 15°C
Dew Point: 54°F , 12°C
Humidity: 82%
Barometer: 30.37 inHg , 1028.4 hPa
Clouds: Overcast
Visibility: 10 miles , 16 km
Cloud details: Overcast 5000 ft
2018/10/18 11:15 KGVT 181115Z AUTO 00000KT 10SM OVC050 15/12 A3037 RMK AO2
 
KFTW - Fort Worth, Texas, USA
Distance from station: WSW 40mi, 65km
Updated: Thu, 18-Oct-2018 5:53am CDT
Overcast
Overcast
 Wind from N
Wind: N 8 mph , 13 km/h
Temperature: 54°F , 12°C
Dew Point: 52°F , 11°C
Humidity: 94%
Barometer: 30.36 inHg , 1028.1 hPa
Clouds: Overcast
Visibility: 10 miles , 16 km
Cloud details: Mostly cloudy 4700 ft
Overcast 6000 ft
2018/10/18 10:53 KFTW 181053Z 36007KT 10SM BKN047 OVC060 12/11 A3036 RMK AO2 SLP279 T01220106
KGYI - Sherman/Denison, Texas, USA
Distance from station: N 43mi, 69km
Updated: Thu, 18-Oct-2018 6:15am CDT
Clear
Clear
 Wind from ENE
Wind: ENE 5 mph , 7 km/h
Temperature: 55°F , 13°C
Dew Point: 52°F , 11°C
Humidity: 88%
Barometer: 30.40 inHg , 1029.5 hPa
Clouds: Clear
Visibility: 10 miles , 16 km
2018/10/18 11:15 KGYI 181115Z AUTO 06004KT 10SM CLR 13/11 A3040 RMK AO2 T01250106 TSNO
 
KNFW - Fort Worth Nas, Texas, USA
Distance from station: WSW 45mi, 73km
Updated: Thu, 18-Oct-2018 5:52am CDT
Overcast
Overcast
 Wind from NNW
Wind: NNW 7 mph , 11 km/h
Temperature: 55°F , 13°C
Dew Point: 52°F , 11°C
Humidity: 88%
Barometer: 30.37 inHg , 1028.4 hPa
Clouds: Overcast
Visibility: 10 miles , 16 km
Cloud details: Overcast 4600 ft
2018/10/18 10:52 KNFW 181052Z AUTO 34006KT 10SM OVC046 13/11 A3037 RMK AO2 SLP265 T01280106 $
KGLE - Gainesville, Texas, USA
Distance from station: NW 46mi, 74km
Updated: Thu, 18-Oct-2018 6:15am CDT
Rain, Overcast
Rain, Overcast
 Wind from N
Wind: N 6 mph , 9 km/h
Temperature: 54°F , 12°C
Dew Point: 52°F , 11°C
Humidity: 94%
Barometer: 30.41 inHg , 1029.8 hPa
Summary: Rain
Clouds: Overcast
Visibility: 10 miles , 16 km
Cloud details: Overcast 6000 ft
2018/10/18 11:15 KGLE 181115Z AUTO 01005KT 10SM RA OVC060 12/11 A3041 RMK AO2 T01200105
 
KJWY - Midlothian/Wax, Texas, USA
Distance from station: SSW 46mi, 74km
Updated: Thu, 18-Oct-2018 6:15am CDT
Overcast
Overcast
 Wind from NNE
Wind: NNE 7 mph , 11 km/h
Temperature: 55°F , 13°C
Dew Point: 52°F , 11°C
Humidity: 88%
Barometer: 30.36 inHg , 1028.1 hPa
Clouds: Overcast
Visibility: 10 miles , 16 km
Cloud details: Overcast 4600 ft
2018/10/18 11:15 KJWY 181115Z AUTO 03006KT 10SM OVC046 13/11 A3036 RMK AO2 T01330105
KFWS - Fort Worth/88d, Texas, USA
Distance from station: SW 49mi, 79km
Updated: Thu, 18-Oct-2018 6:15am CDT
Overcast
Overcast
 Wind from N
Wind: N 5 mph , 7 km/h
Temperature: 55°F , 13°C
Dew Point: 52°F , 11°C
Humidity: 88%
Barometer: 30.37 inHg , 1028.4 hPa
Clouds: Overcast
Visibility: 10 miles , 16 km
Cloud details: Partly cloudy 4600 ft
Overcast 5500 ft
2018/10/18 11:15 KFWS 181115Z AUTO 01004KT 10SM SCT046 OVC055 13/11 A3037 RMK AO2 T01260110